sensor_id;sensor_type;location;lat;lon;timestamp;temperature;humidity
64501;DHT22;50874;24.150;-110.320;2023-07-30T00:02:26;40.70;77.10
64501;DHT22;50874;24.150;-110.320;2023-07-30T00:04:52;40.50;77.30
64501;DHT22;50874;24.150;-110.320;2023-07-30T00:07:20;40.20;77.80
64501;DHT22;50874;24.150;-110.320;2023-07-30T00:09:46;40.20;78.00
64501;DHT22;50874;24.150;-110.320;2023-07-30T00:12:13;40.10;78.50
64501;DHT22;50874;24.150;-110.320;2023-07-30T00:14:39;40.00;78.80
64501;DHT22;50874;24.150;-110.320;2023-07-30T00:17:06;39.90;79.30
64501;DHT22;50874;24.150;-110.320;2023-07-30T00:19:32;39.50;80.50
64501;DHT22;50874;24.150;-110.320;2023-07-30T00:21:59;39.30;81.50
64501;DHT22;50874;24.150;-110.320;2023-07-30T00:24:26;39.20;82.20
64501;DHT22;50874;24.150;-110.320;2023-07-30T00:26:53;38.90;82.80
64501;DHT22;50874;24.150;-110.320;2023-07-30T00:29:19;38.80;83.20
64501;DHT22;50874;24.150;-110.320;2023-07-30T00:31:46;38.70;83.90
64501;DHT22;50874;24.150;-110.320;2023-07-30T00:34:12;38.40;85.00
64501;DHT22;50874;24.150;-110.320;2023-07-30T00:36:38;38.30;86.00
64501;DHT22;50874;24.150;-110.320;2023-07-30T00:39:05;38.20;86.30
64501;DHT22;50874;24.150;-110.320;2023-07-30T00:41:32;38.00;87.20
64501;DHT22;50874;24.150;-110.320;2023-07-30T00:43:58;37.50;88.50
64501;DHT22;50874;24.150;-110.320;2023-07-30T00:46:25;37.50;88.90
64501;DHT22;50874;24.150;-110.320;2023-07-30T00:48:51;37.40;89.10
64501;DHT22;50874;24.150;-110.320;2023-07-30T00:51:18;37.30;89.50
64501;DHT22;50874;24.150;-110.320;2023-07-30T00:53:45;37.20;90.10
64501;DHT22;50874;24.150;-110.320;2023-07-30T00:56:12;37.20;90.30
64501;DHT22;50874;24.150;-110.320;2023-07-30T00:58:40;37.10;90.50
64501;DHT22;50874;24.150;-110.320;2023-07-30T01:01:07;36.90;91.00
64501;DHT22;50874;24.150;-110.320;2023-07-30T01:03:34;36.90;91.30
64501;DHT22;50874;24.150;-110.320;2023-07-30T01:06:01;36.70;91.60
64501;DHT22;50874;24.150;-110.320;2023-07-30T01:08:27;36.60;91.90
64501;DHT22;50874;24.150;-110.320;2023-07-30T01:10:54;36.50;91.90
64501;DHT22;50874;24.150;-110.320;2023-07-30T01:13:21;36.50;92.10
64501;DHT22;50874;24.150;-110.320;2023-07-30T01:15:48;36.40;92.20
64501;DHT22;50874;24.150;-110.320;2023-07-30T01:18:15;36.40;92.30
64501;DHT22;50874;24.150;-110.320;2023-07-30T01:20:41;36.10;92.60
64501;DHT22;50874;24.150;-110.320;2023-07-30T01:23:08;36.10;92.70
64501;DHT22;50874;24.150;-110.320;2023-07-30T01:25:36;36.00;92.80
64501;DHT22;50874;24.150;-110.320;2023-07-30T01:28:05;35.70;93.10
64501;DHT22;50874;24.150;-110.320;2023-07-30T01:30:41;35.50;93.20
64501;DHT22;50874;24.150;-110.320;2023-07-30T01:33:10;35.20;93.60
64501;DHT22;50874;24.150;-110.320;2023-07-30T01:35:38;35.00;93.70
64501;DHT22;50874;24.150;-110.320;2023-07-30T01:38:04;34.90;93.90
64501;DHT22;50874;24.150;-110.320;2023-07-30T01:40:32;34.70;94.10
64501;DHT22;50874;24.150;-110.320;2023-07-30T01:42:59;34.60;94.20
64501;DHT22;50874;24.150;-110.320;2023-07-30T01:45:26;34.60;94.20
64501;DHT22;50874;24.150;-110.320;2023-07-30T01:47:52;34.50;94.40
64501;DHT22;50874;24.150;-110.320;2023-07-30T01:50:19;34.50;94.50
64501;DHT22;50874;24.150;-110.320;2023-07-30T01:52:45;34.30;94.70
64501;DHT22;50874;24.150;-110.320;2023-07-30T01:55:12;34.30;94.90
64501;DHT22;50874;24.150;-110.320;2023-07-30T01:57:38;34.00;95.20
64501;DHT22;50874;24.150;-110.320;2023-07-30T02:00:05;33.90;95.60
64501;DHT22;50874;24.150;-110.320;2023-07-30T02:02:32;33.80;96.10
64501;DHT22;50874;24.150;-110.320;2023-07-30T02:04:58;33.80;96.30
64501;DHT22;50874;24.150;-110.320;2023-07-30T02:07:25;33.60;96.60
64501;DHT22;50874;24.150;-110.320;2023-07-30T02:09:51;33.40;96.90
64501;DHT22;50874;24.150;-110.320;2023-07-30T02:12:18;33.40;97.30
64501;DHT22;50874;24.150;-110.320;2023-07-30T02:14:44;33.20;97.60
64501;DHT22;50874;24.150;-110.320;2023-07-30T02:17:11;33.20;97.80
64501;DHT22;50874;24.150;-110.320;2023-07-30T02:19:37;33.20;98.10
64501;DHT22;50874;24.150;-110.320;2023-07-30T02:22:04;33.00;98.50
64501;DHT22;50874;24.150;-110.320;2023-07-30T02:24:30;32.80;99.20
64501;DHT22;50874;24.150;-110.320;2023-07-30T02:26:57;32.70;99.60
64501;DHT22;50874;24.150;-110.320;2023-07-30T02:29:23;32.70;99.80
64501;DHT22;50874;24.150;-110.320;2023-07-30T02:31:50;32.60;99.90
64501;DHT22;50874;24.150;-110.320;2023-07-30T02:34:16;32.50;99.90
64501;DHT22;50874;24.150;-110.320;2023-07-30T02:36:43;32.30;99.90
64501;DHT22;50874;24.150;-110.320;2023-07-30T02:39:09;32.20;99.90
64501;DHT22;50874;24.150;-110.320;2023-07-30T02:41:36;32.20;99.90
64501;DHT22;50874;24.150;-110.320;2023-07-30T02:44:02;32.10;99.90
64501;DHT22;50874;24.150;-110.320;2023-07-30T02:46:29;32.00;99.90
64501;DHT22;50874;24.150;-110.320;2023-07-30T02:48:55;32.00;99.90
64501;DHT22;50874;24.150;-110.320;2023-07-30T02:51:22;32.10;99.90
64501;DHT22;50874;24.150;-110.320;2023-07-30T02:53:52;32.00;99.90
64501;DHT22;50874;24.150;-110.320;2023-07-30T02:56:19;31.90;99.90
64501;DHT22;50874;24.150;-110.320;2023-07-30T02:58:45;31.80;99.90
64501;DHT22;50874;24.150;-110.320;2023-07-30T03:01:12;31.80;99.90
64501;DHT22;50874;24.150;-110.320;2023-07-30T03:03:38;31.70;99.90
64501;DHT22;50874;24.150;-110.320;2023-07-30T03:06:05;31.80;99.90
64501;DHT22;50874;24.150;-110.320;2023-07-30T03:08:31;31.80;99.90
64501;DHT22;50874;24.150;-110.320;2023-07-30T03:10:59;31.70;99.90
64501;DHT22;50874;24.150;-110.320;2023-07-30T03:13:25;31.70;99.90
64501;DHT22;50874;24.150;-110.320;2023-07-30T03:15:52;31.50;99.90
64501;DHT22;50874;24.150;-110.320;2023-07-30T03:18:19;31.50;99.90
64501;DHT22;50874;24.150;-110.320;2023-07-30T03:20:45;31.30;99.90
64501;DHT22;50874;24.150;-110.320;2023-07-30T03:23:12;31.20;99.90
64501;DHT22;50874;24.150;-110.320;2023-07-30T03:25:38;31.20;99.90
64501;DHT22;50874;24.150;-110.320;2023-07-30T03:28:05;31.20;99.90
64501;DHT22;50874;24.150;-110.320;2023-07-30T03:30:32;31.10;99.90
64501;DHT22;50874;24.150;-110.320;2023-07-30T03:32:58;31.00;99.90
64501;DHT22;50874;24.150;-110.320;2023-07-30T03:35:24;31.00;99.90
64501;DHT22;50874;24.150;-110.320;2023-07-30T03:37:52;30.90;99.90
64501;DHT22;50874;24.150;-110.320;2023-07-30T03:40:18;30.90;99.90
64501;DHT22;50874;24.150;-110.320;2023-07-30T03:42:44;31.00;99.90
64501;DHT22;50874;24.150;-110.320;2023-07-30T03:45:11;30.90;99.90
64501;DHT22;50874;24.150;-110.320;2023-07-30T03:47:37;30.80;99.90
64501;DHT22;50874;24.150;-110.320;2023-07-30T03:50:04;30.80;99.90
64501;DHT22;50874;24.150;-110.320;2023-07-30T03:52:31;30.80;99.90
64501;DHT22;50874;24.150;-110.320;2023-07-30T03:54:57;30.60;99.90
64501;DHT22;50874;24.150;-110.320;2023-07-30T03:57:24;30.60;99.90
64501;DHT22;50874;24.150;-110.320;2023-07-30T03:59:50;30.60;99.90
64501;DHT22;50874;24.150;-110.320;2023-07-30T04:02:16;30.70;99.90
64501;DHT22;50874;24.150;-110.320;2023-07-30T04:04:43;30.70;99.90
64501;DHT22;50874;24.150;-110.320;2023-07-30T04:07:12;30.60;99.90
64501;DHT22;50874;24.150;-110.320;2023-07-30T04:09:38;30.60;99.90
64501;DHT22;50874;24.150;-110.320;2023-07-30T04:12:05;30.60;99.90
64501;DHT22;50874;24.150;-110.320;2023-07-30T04:14:31;30.60;99.90
64501;DHT22;50874;24.150;-110.320;2023-07-30T04:16:58;30.60;99.90
64501;DHT22;50874;24.150;-110.320;2023-07-30T04:19:24;30.40;99.90
64501;DHT22;50874;24.150;-110.320;2023-07-30T04:21:51;30.50;99.90
64501;DHT22;50874;24.150;-110.320;2023-07-30T04:24:17;30.50;99.90
64501;DHT22;50874;24.150;-110.320;2023-07-30T04:26:44;30.40;99.90
64501;DHT22;50874;24.150;-110.320;2023-07-30T04:29:10;30.40;99.90
64501;DHT22;50874;24.150;-110.320;2023-07-30T04:31:37;30.40;99.90
64501;DHT22;50874;24.150;-110.320;2023-07-30T04:34:04;30.20;99.90
64501;DHT22;50874;24.150;-110.320;2023-07-30T04:36:30;30.20;99.90
64501;DHT22;50874;24.150;-110.320;2023-07-30T04:38:56;30.10;99.90
64501;DHT22;50874;24.150;-110.320;2023-07-30T04:41:23;30.20;99.90
64501;DHT22;50874;24.150;-110.320;2023-07-30T04:43:49;30.20;99.90
64501;DHT22;50874;24.150;-110.320;2023-07-30T04:46:16;30.20;99.90
64501;DHT22;50874;24.150;-110.320;2023-07-30T04:48:42;30.30;99.90
64501;DHT22;50874;24.150;-110.320;2023-07-30T04:51:09;30.40;99.90
64501;DHT22;50874;24.150;-110.320;2023-07-30T04:53:35;30.20;99.90
64501;DHT22;50874;24.150;-110.320;2023-07-30T04:56:01;30.20;99.90
64501;DHT22;50874;24.150;-110.320;2023-07-30T04:58:28;30.20;99.90
64501;DHT22;50874;24.150;-110.320;2023-07-30T05:00:55;30.20;99.90
64501;DHT22;50874;24.150;-110.320;2023-07-30T05:03:21;30.20;99.90
64501;DHT22;50874;24.150;-110.320;2023-07-30T05:05:48;30.10;99.90
64501;DHT22;50874;24.150;-110.320;2023-07-30T05:08:14;30.10;99.90
64501;DHT22;50874;24.150;-110.320;2023-07-30T05:10:41;30.10;99.90
64501;DHT22;50874;24.150;-110.320;2023-07-30T05:13:07;30.00;99.90
64501;DHT22;50874;24.150;-110.320;2023-07-30T05:15:34;30.00;99.90
64501;DHT22;50874;24.150;-110.320;2023-07-30T05:18:01;30.00;99.90
64501;DHT22;50874;24.150;-110.320;2023-07-30T05:20:27;30.00;99.90
64501;DHT22;50874;24.150;-110.320;2023-07-30T05:22:54;30.00;99.90
64501;DHT22;50874;24.150;-110.320;2023-07-30T05:25:20;30.00;99.90
64501;DHT22;50874;24.150;-110.320;2023-07-30T05:27:47;29.90;99.90
64501;DHT22;50874;24.150;-110.320;2023-07-30T05:30:13;29.90;99.90
64501;DHT22;50874;24.150;-110.320;2023-07-30T05:32:40;29.80;99.90
64501;DHT22;50874;24.150;-110.320;2023-07-30T05:35:06;29.80;99.90
64501;DHT22;50874;24.150;-110.320;2023-07-30T05:37:33;29.80;99.90
64501;DHT22;50874;24.150;-110.320;2023-07-30T05:39:59;29.70;99.90
64501;DHT22;50874;24.150;-110.320;2023-07-30T05:42:26;29.60;99.90
64501;DHT22;50874;24.150;-110.320;2023-07-30T05:44:52;29.70;99.90
64501;DHT22;50874;24.150;-110.320;2023-07-30T05:47:19;29.60;99.90
64501;DHT22;50874;24.150;-110.320;2023-07-30T05:49:45;29.50;99.90
64501;DHT22;50874;24.150;-110.320;2023-07-30T05:52:11;29.50;99.90
64501;DHT22;50874;24.150;-110.320;2023-07-30T05:54:38;29.50;99.90
64501;DHT22;50874;24.150;-110.320;2023-07-30T05:57:04;29.40;99.90
64501;DHT22;50874;24.150;-110.320;2023-07-30T05:59:31;29.40;99.90
64501;DHT22;50874;24.150;-110.320;2023-07-30T06:02:02;29.40;99.90
64501;DHT22;50874;24.150;-110.320;2023-07-30T06:04:29;29.40;99.90
64501;DHT22;50874;24.150;-110.320;2023-07-30T06:06:57;29.40;99.90
64501;DHT22;50874;24.150;-110.320;2023-07-30T06:09:24;29.40;99.90
64501;DHT22;50874;24.150;-110.320;2023-07-30T06:11:50;29.40;99.90
64501;DHT22;50874;24.150;-110.320;2023-07-30T06:14:17;29.30;99.90
64501;DHT22;50874;24.150;-110.320;2023-07-30T06:16:43;29.30;99.90
64501;DHT22;50874;24.150;-110.320;2023-07-30T06:19:10;29.30;99.90
64501;DHT22;50874;24.150;-110.320;2023-07-30T06:21:36;29.20;99.90
64501;DHT22;50874;24.150;-110.320;2023-07-30T06:24:03;29.20;99.90
64501;DHT22;50874;24.150;-110.320;2023-07-30T06:26:29;29.20;99.90
64501;DHT22;50874;24.150;-110.320;2023-07-30T06:28:56;29.20;99.90
64501;DHT22;50874;24.150;-110.320;2023-07-30T06:31:23;29.20;99.90
64501;DHT22;50874;24.150;-110.320;2023-07-30T06:33:49;29.00;99.90
64501;DHT22;50874;24.150;-110.320;2023-07-30T06:36:16;29.00;99.90
64501;DHT22;50874;24.150;-110.320;2023-07-30T06:38:42;28.90;99.90
64501;DHT22;50874;24.150;-110.320;2023-07-30T06:41:09;28.90;99.90
64501;DHT22;50874;24.150;-110.320;2023-07-30T06:43:35;28.80;99.90
64501;DHT22;50874;24.150;-110.320;2023-07-30T06:46:02;28.90;99.90
64501;DHT22;50874;24.150;-110.320;2023-07-30T06:48:28;28.80;99.90
64501;DHT22;50874;24.150;-110.320;2023-07-30T06:50:55;28.80;99.90
64501;DHT22;50874;24.150;-110.320;2023-07-30T06:53:21;28.70;99.90
64501;DHT22;50874;24.150;-110.320;2023-07-30T06:55:47;28.70;99.90
64501;DHT22;50874;24.150;-110.320;2023-07-30T06:58:14;28.70;99.90
64501;DHT22;50874;24.150;-110.320;2023-07-30T07:00:40;28.60;99.90
64501;DHT22;50874;24.150;-110.320;2023-07-30T07:03:07;28.60;99.90
64501;DHT22;50874;24.150;-110.320;2023-07-30T07:05:33;28.60;99.90
64501;DHT22;50874;24.150;-110.320;2023-07-30T07:08:00;28.60;99.90
64501;DHT22;50874;24.150;-110.320;2023-07-30T07:10:26;28.50;99.90
64501;DHT22;50874;24.150;-110.320;2023-07-30T07:12:52;28.50;99.90
64501;DHT22;50874;24.150;-110.320;2023-07-30T07:15:19;28.50;99.90
64501;DHT22;50874;24.150;-110.320;2023-07-30T07:17:45;28.40;99.90
64501;DHT22;50874;24.150;-110.320;2023-07-30T07:20:12;28.40;99.90
64501;DHT22;50874;24.150;-110.320;2023-07-30T07:22:38;28.40;99.90
64501;DHT22;50874;24.150;-110.320;2023-07-30T07:25:05;28.30;99.90
64501;DHT22;50874;24.150;-110.320;2023-07-30T07:27:32;28.40;99.90
64501;DHT22;50874;24.150;-110.320;2023-07-30T07:29:58;28.40;99.90
64501;DHT22;50874;24.150;-110.320;2023-07-30T07:32:25;28.30;99.90
64501;DHT22;50874;24.150;-110.320;2023-07-30T07:34:52;28.20;99.90
64501;DHT22;50874;24.150;-110.320;2023-07-30T07:37:18;28.10;99.90
64501;DHT22;50874;24.150;-110.320;2023-07-30T07:39:46;28.20;99.90
64501;DHT22;50874;24.150;-110.320;2023-07-30T07:42:12;28.10;99.90
64501;DHT22;50874;24.150;-110.320;2023-07-30T07:44:39;28.10;99.90
64501;DHT22;50874;24.150;-110.320;2023-07-30T07:47:05;28.00;99.90
64501;DHT22;50874;24.150;-110.320;2023-07-30T07:49:32;28.00;99.90
64501;DHT22;50874;24.150;-110.320;2023-07-30T07:51:58;27.90;99.90
64501;DHT22;50874;24.150;-110.320;2023-07-30T07:54:25;28.00;99.90
64501;DHT22;50874;24.150;-110.320;2023-07-30T07:56:51;28.00;99.90
64501;DHT22;50874;24.150;-110.320;2023-07-30T07:59:18;27.90;99.90
64501;DHT22;50874;24.150;-110.320;2023-07-30T08:01:44;28.00;99.90
64501;DHT22;50874;24.150;-110.320;2023-07-30T08:04:10;27.90;99.90
64501;DHT22;50874;24.150;-110.320;2023-07-30T08:06:37;27.90;99.90
64501;DHT22;50874;24.150;-110.320;2023-07-30T08:09:03;27.80;99.90
64501;DHT22;50874;24.150;-110.320;2023-07-30T08:11:31;27.80;99.90
64501;DHT22;50874;24.150;-110.320;2023-07-30T08:13:57;27.80;99.90
64501;DHT22;50874;24.150;-110.320;2023-07-30T08:16:23;27.80;99.90
64501;DHT22;50874;24.150;-110.320;2023-07-30T08:18:51;27.80;99.90
64501;DHT22;50874;24.150;-110.320;2023-07-30T08:21:17;27.80;99.90
64501;DHT22;50874;24.150;-110.320;2023-07-30T08:23:46;27.70;99.90
64501;DHT22;50874;24.150;-110.320;2023-07-30T08:26:13;27.70;99.90
64501;DHT22;50874;24.150;-110.320;2023-07-30T08:28:39;27.70;99.90
64501;DHT22;50874;24.150;-110.320;2023-07-30T08:31:06;27.70;99.90
64501;DHT22;50874;24.150;-110.320;2023-07-30T08:33:32;27.60;99.90
64501;DHT22;50874;24.150;-110.320;2023-07-30T08:35:59;27.60;99.90
64501;DHT22;50874;24.150;-110.320;2023-07-30T08:38:26;27.60;99.90
64501;DHT22;50874;24.150;-110.320;2023-07-30T08:40:52;27.50;99.90
64501;DHT22;50874;24.150;-110.320;2023-07-30T08:43:19;27.60;99.90
64501;DHT22;50874;24.150;-110.320;2023-07-30T08:45:45;27.60;99.90
64501;DHT22;50874;24.150;-110.320;2023-07-30T08:48:12;27.60;99.90
64501;DHT22;50874;24.150;-110.320;2023-07-30T08:50:39;27.60;99.90
64501;DHT22;50874;24.150;-110.320;2023-07-30T08:53:07;27.60;99.90
64501;DHT22;50874;24.150;-110.320;2023-07-30T08:55:34;27.50;99.90
64501;DHT22;50874;24.150;-110.320;2023-07-30T08:58:02;27.50;99.90
64501;DHT22;50874;24.150;-110.320;2023-07-30T09:00:33;27.50;99.90
64501;DHT22;50874;24.150;-110.320;2023-07-30T09:03:00;27.50;99.90
64501;DHT22;50874;24.150;-110.320;2023-07-30T09:05:29;27.60;99.90
64501;DHT22;50874;24.150;-110.320;2023-07-30T09:07:56;27.50;99.90
64501;DHT22;50874;24.150;-110.320;2023-07-30T09:10:23;27.50;99.90
64501;DHT22;50874;24.150;-110.320;2023-07-30T09:12:57;27.50;99.90
64501;DHT22;50874;24.150;-110.320;2023-07-30T09:15:32;27.50;99.90
64501;DHT22;50874;24.150;-110.320;2023-07-30T09:18:00;27.50;99.90
64501;DHT22;50874;24.150;-110.320;2023-07-30T09:20:27;27.50;99.90
64501;DHT22;50874;24.150;-110.320;2023-07-30T09:22:56;27.40;99.90
64501;DHT22;50874;24.150;-110.320;2023-07-30T09:25:23;27.40;99.90
64501;DHT22;50874;24.150;-110.320;2023-07-30T09:27:53;27.40;99.90
64501;DHT22;50874;24.150;-110.320;2023-07-30T09:30:23;27.40;99.90
64501;DHT22;50874;24.150;-110.320;2023-07-30T09:32:55;27.40;99.90
64501;DHT22;50874;24.150;-110.320;2023-07-30T09:35:24;27.30;99.90
64501;DHT22;50874;24.150;-110.320;2023-07-30T09:38:01;27.40;99.90
64501;DHT22;50874;24.150;-110.320;2023-07-30T09:40:35;27.40;99.90
64501;DHT22;50874;24.150;-110.320;2023-07-30T09:43:03;27.40;99.90
64501;DHT22;50874;24.150;-110.320;2023-07-30T09:45:34;27.40;99.90
64501;DHT22;50874;24.150;-110.320;2023-07-30T09:48:03;27.40;99.90
64501;DHT22;50874;24.150;-110.320;2023-07-30T09:50:34;27.30;99.90
64501;DHT22;50874;24.150;-110.320;2023-07-30T09:53:04;27.30;99.90
64501;DHT22;50874;24.150;-110.320;2023-07-30T09:55:30;27.30;99.90
64501;DHT22;50874;24.150;-110.320;2023-07-30T09:57:57;27.30;99.90
64501;DHT22;50874;24.150;-110.320;2023-07-30T10:00:24;27.20;99.90
64501;DHT22;50874;24.150;-110.320;2023-07-30T10:02:50;27.20;99.90
64501;DHT22;50874;24.150;-110.320;2023-07-30T10:05:24;27.20;99.90
64501;DHT22;50874;24.150;-110.320;2023-07-30T10:07:55;27.20;99.90
64501;DHT22;50874;24.150;-110.320;2023-07-30T10:10:25;27.20;99.90
64501;DHT22;50874;24.150;-110.320;2023-07-30T10:12:55;27.20;99.90
64501;DHT22;50874;24.150;-110.320;2023-07-30T10:15:23;27.20;99.90
64501;DHT22;50874;24.150;-110.320;2023-07-30T10:17:51;27.20;99.90
64501;DHT22;50874;24.150;-110.320;2023-07-30T10:20:30;27.20;99.90
64501;DHT22;50874;24.150;-110.320;2023-07-30T10:22:58;27.20;99.90
64501;DHT22;50874;24.150;-110.320;2023-07-30T10:25:44;27.20;99.90
64501;DHT22;50874;24.150;-110.320;2023-07-30T10:28:31;27.20;99.90
64501;DHT22;50874;24.150;-110.320;2023-07-30T10:31:01;27.10;99.90
64501;DHT22;50874;24.150;-110.320;2023-07-30T10:33:49;27.10;99.90
64501;DHT22;50874;24.150;-110.320;2023-07-30T10:36:40;27.20;99.90
64501;DHT22;50874;24.150;-110.320;2023-07-30T10:39:19;27.10;99.90
64501;DHT22;50874;24.150;-110.320;2023-07-30T10:41:49;27.10;99.90
64501;DHT22;50874;24.150;-110.320;2023-07-30T10:44:23;27.10;99.90
64501;DHT22;50874;24.150;-110.320;2023-07-30T10:46:54;27.10;99.90
64501;DHT22;50874;24.150;-110.320;2023-07-30T10:49:21;27.10;99.90
64501;DHT22;50874;24.150;-110.320;2023-07-30T10:51:47;27.00;99.90
64501;DHT22;50874;24.150;-110.320;2023-07-30T10:54:14;27.00;99.90
64501;DHT22;50874;24.150;-110.320;2023-07-30T10:56:42;27.00;99.90
64501;DHT22;50874;24.150;-110.320;2023-07-30T10:59:09;27.00;99.90
64501;DHT22;50874;24.150;-110.320;2023-07-30T11:01:43;27.00;99.90
64501;DHT22;50874;24.150;-110.320;2023-07-30T11:06:37;27.00;99.90
64501;DHT22;50874;24.150;-110.320;2023-07-30T11:09:04;27.00;99.90
64501;DHT22;50874;24.150;-110.320;2023-07-30T11:11:31;27.00;99.90
64501;DHT22;50874;24.150;-110.320;2023-07-30T11:13:58;27.00;99.90
64501;DHT22;50874;24.150;-110.320;2023-07-30T11:16:25;27.00;99.90
64501;DHT22;50874;24.150;-110.320;2023-07-30T11:18:52;27.00;99.90
64501;DHT22;50874;24.150;-110.320;2023-07-30T11:21:19;27.00;99.90
64501;DHT22;50874;24.150;-110.320;2023-07-30T11:23:46;27.00;99.90
64501;DHT22;50874;24.150;-110.320;2023-07-30T11:26:18;27.00;99.90
64501;DHT22;50874;24.150;-110.320;2023-07-30T11:28:45;27.00;99.90
64501;DHT22;50874;24.150;-110.320;2023-07-30T11:31:17;27.00;99.90
64501;DHT22;50874;24.150;-110.320;2023-07-30T11:33:48;26.90;99.90
64501;DHT22;50874;24.150;-110.320;2023-07-30T11:36:22;26.90;99.90
64501;DHT22;50874;24.150;-110.320;2023-07-30T11:38:51;26.90;99.90
64501;DHT22;50874;24.150;-110.320;2023-07-30T11:41:19;26.90;99.90
64501;DHT22;50874;24.150;-110.320;2023-07-30T11:43:47;26.90;99.90
64501;DHT22;50874;24.150;-110.320;2023-07-30T11:46:15;27.00;99.90
64501;DHT22;50874;24.150;-110.320;2023-07-30T11:48:44;27.00;99.90
64501;DHT22;50874;24.150;-110.320;2023-07-30T11:51:25;27.00;99.90
64501;DHT22;50874;24.150;-110.320;2023-07-30T11:53:57;27.00;99.90
64501;DHT22;50874;24.150;-110.320;2023-07-30T11:59:01;27.00;99.90
64501;DHT22;50874;24.150;-110.320;2023-07-30T12:01:30;27.00;99.90
64501;DHT22;50874;24.150;-110.320;2023-07-30T12:03:58;27.00;99.90
64501;DHT22;50874;24.150;-110.320;2023-07-30T12:06:46;27.00;99.90
64501;DHT22;50874;24.150;-110.320;2023-07-30T12:09:23;27.00;99.90
64501;DHT22;50874;24.150;-110.320;2023-07-30T12:11:54;27.00;99.90
64501;DHT22;50874;24.150;-110.320;2023-07-30T12:14:25;26.90;99.90
64501;DHT22;50874;24.150;-110.320;2023-07-30T12:16:56;26.90;99.90
64501;DHT22;50874;24.150;-110.320;2023-07-30T12:19:23;26.90;99.90
64501;DHT22;50874;24.150;-110.320;2023-07-30T12:21:50;26.90;99.90
64501;DHT22;50874;24.150;-110.320;2023-07-30T12:24:16;26.90;99.90
64501;DHT22;50874;24.150;-110.320;2023-07-30T12:26:42;26.90;99.90
64501;DHT22;50874;24.150;-110.320;2023-07-30T12:29:09;26.90;99.90
64501;DHT22;50874;24.150;-110.320;2023-07-30T12:31:35;26.90;99.90
64501;DHT22;50874;24.150;-110.320;2023-07-30T12:34:02;26.90;99.90
64501;DHT22;50874;24.150;-110.320;2023-07-30T12:36:29;26.90;99.90
64501;DHT22;50874;24.150;-110.320;2023-07-30T12:38:55;26.90;99.90
64501;DHT22;50874;24.150;-110.320;2023-07-30T12:41:22;26.90;99.90
64501;DHT22;50874;24.150;-110.320;2023-07-30T12:43:55;26.90;99.90
64501;DHT22;50874;24.150;-110.320;2023-07-30T12:46:25;26.90;99.90
64501;DHT22;50874;24.150;-110.320;2023-07-30T12:48:56;26.90;99.90
64501;DHT22;50874;24.150;-110.320;2023-07-30T12:51:23;26.90;99.90
64501;DHT22;50874;24.150;-110.320;2023-07-30T12:53:49;26.90;99.90
64501;DHT22;50874;24.150;-110.320;2023-07-30T12:56:16;27.00;99.90
64501;DHT22;50874;24.150;-110.320;2023-07-30T12:58:42;27.00;99.90
64501;DHT22;50874;24.150;-110.320;2023-07-30T13:01:09;27.00;99.90
64501;DHT22;50874;24.150;-110.320;2023-07-30T13:03:35;27.00;99.90
64501;DHT22;50874;24.150;-110.320;2023-07-30T13:06:02;27.10;99.90
64501;DHT22;50874;24.150;-110.320;2023-07-30T13:08:29;27.10;99.90
64501;DHT22;50874;24.150;-110.320;2023-07-30T13:10:55;27.20;99.90
64501;DHT22;50874;24.150;-110.320;2023-07-30T13:13:22;27.40;99.90
64501;DHT22;50874;24.150;-110.320;2023-07-30T13:15:49;27.40;99.90
64501;DHT22;50874;24.150;-110.320;2023-07-30T13:18:16;27.50;99.90
64501;DHT22;50874;24.150;-110.320;2023-07-30T13:20:42;27.50;99.90
64501;DHT22;50874;24.150;-110.320;2023-07-30T13:23:09;27.60;99.90
64501;DHT22;50874;24.150;-110.320;2023-07-30T13:25:35;27.60;99.90
64501;DHT22;50874;24.150;-110.320;2023-07-30T13:28:01;27.70;99.90
64501;DHT22;50874;24.150;-110.320;2023-07-30T13:30:28;27.70;99.90
64501;DHT22;50874;24.150;-110.320;2023-07-30T13:32:54;27.80;99.90
64501;DHT22;50874;24.150;-110.320;2023-07-30T13:35:21;27.90;99.90
64501;DHT22;50874;24.150;-110.320;2023-07-30T13:37:47;28.10;99.90
64501;DHT22;50874;24.150;-110.320;2023-07-30T13:40:14;28.30;99.90
64501;DHT22;50874;24.150;-110.320;2023-07-30T13:42:40;28.50;99.90
64501;DHT22;50874;24.150;-110.320;2023-07-30T13:45:07;28.80;99.90
64501;DHT22;50874;24.150;-110.320;2023-07-30T13:47:33;29.10;99.90
64501;DHT22;50874;24.150;-110.320;2023-07-30T13:50:00;29.40;99.90
64501;DHT22;50874;24.150;-110.320;2023-07-30T13:52:26;29.70;99.90
64501;DHT22;50874;24.150;-110.320;2023-07-30T13:54:53;30.00;99.90
64501;DHT22;50874;24.150;-110.320;2023-07-30T13:57:23;30.30;99.90
64501;DHT22;50874;24.150;-110.320;2023-07-30T13:59:52;30.40;99.90
64501;DHT22;50874;24.150;-110.320;2023-07-30T14:02:19;30.30;99.90
64501;DHT22;50874;24.150;-110.320;2023-07-30T14:04:45;30.20;99.90
64501;DHT22;50874;24.150;-110.320;2023-07-30T14:07:12;30.10;99.90
64501;DHT22;50874;24.150;-110.320;2023-07-30T14:09:38;30.30;99.90
64501;DHT22;50874;24.150;-110.320;2023-07-30T14:12:05;30.60;99.70
64501;DHT22;50874;24.150;-110.320;2023-07-30T14:14:32;30.90;99.40
64501;DHT22;50874;24.150;-110.320;2023-07-30T14:16:58;31.10;99.00
64501;DHT22;50874;24.150;-110.320;2023-07-30T14:19:26;31.40;98.50
64501;DHT22;50874;24.150;-110.320;2023-07-30T14:21:52;31.60;98.10
64501;DHT22;50874;24.150;-110.320;2023-07-30T14:24:19;31.80;97.90
64501;DHT22;50874;24.150;-110.320;2023-07-30T14:26:45;31.90;97.60
64501;DHT22;50874;24.150;-110.320;2023-07-30T14:29:12;31.90;97.30
64501;DHT22;50874;24.150;-110.320;2023-07-30T14:31:38;32.00;96.90
64501;DHT22;50874;24.150;-110.320;2023-07-30T14:34:04;32.10;96.70
64501;DHT22;50874;24.150;-110.320;2023-07-30T14:36:31;32.20;96.70
64501;DHT22;50874;24.150;-110.320;2023-07-30T14:38:57;32.30;96.60
64501;DHT22;50874;24.150;-110.320;2023-07-30T14:41:24;32.60;96.10
64501;DHT22;50874;24.150;-110.320;2023-07-30T14:43:50;33.00;95.60
64501;DHT22;50874;24.150;-110.320;2023-07-30T14:46:17;33.00;95.40
64501;DHT22;50874;24.150;-110.320;2023-07-30T14:48:43;33.20;94.90
64501;DHT22;50874;24.150;-110.320;2023-07-30T14:51:10;33.40;94.50
64501;DHT22;50874;24.150;-110.320;2023-07-30T14:53:37;33.60;94.20
64501;DHT22;50874;24.150;-110.320;2023-07-30T14:56:03;33.70;93.90